sensor_id;sensor_type;location;lat;lon;timestamp;P1;durP1;ratioP1;P2;durP2;ratioP2
22417;SDS011;11376;50.932;4.442;2023-03-23T00:01:19;9.30;;;2.60;;
22417;SDS011;11376;50.932;4.442;2023-03-23T00:03:47;5.47;;;2.50;;
22417;SDS011;11376;50.932;4.442;2023-03-23T00:06:15;5.80;;;2.37;;
22417;SDS011;11376;50.932;4.442;2023-03-23T00:08:43;7.83;;;3.30;;
22417;SDS011;11376;50.932;4.442;2023-03-23T00:11:13;8.03;;;3.57;;
22417;SDS011;11376;50.932;4.442;2023-03-23T00:13:47;14.13;;;3.77;;
22417;SDS011;11376;50.932;4.442;2023-03-23T00:16:21;9.33;;;4.13;;
22417;SDS011;11376;50.932;4.442;2023-03-23T00:18:54;5.37;;;2.37;;
22417;SDS011;11376;50.932;4.442;2023-03-23T00:21:21;7.60;;;3.23;;
22417;SDS011;11376;50.932;4.442;2023-03-23T00:26:32;5.17;;;2.40;;
22417;SDS011;11376;50.932;4.442;2023-03-23T00:29:01;5.13;;;2.87;;
22417;SDS011;11376;50.932;4.442;2023-03-23T00:31:29;4.83;;;2.30;;
22417;SDS011;11376;50.932;4.442;2023-03-23T00:33:58;4.73;;;2.80;;
22417;SDS011;11376;50.932;4.442;2023-03-23T00:36:26;8.07;;;2.73;;
22417;SDS011;11376;50.932;4.442;2023-03-23T00:38:53;5.60;;;2.40;;
22417;SDS011;11376;50.932;4.442;2023-03-23T00:41:23;7.97;;;2.80;;
22417;SDS011;11376;50.932;4.442;2023-03-23T00:43:52;5.97;;;2.43;;
22417;SDS011;11376;50.932;4.442;2023-03-23T00:46:21;5.93;;;2.17;;
22417;SDS011;11376;50.932;4.442;2023-03-23T00:48:47;5.17;;;1.60;;
22417;SDS011;11376;50.932;4.442;2023-03-23T00:51:13;5.90;;;2.80;;
22417;SDS011;11376;50.932;4.442;2023-03-23T00:53:39;6.07;;;2.47;;
22417;SDS011;11376;50.932;4.442;2023-03-23T00:56:06;4.57;;;1.63;;
22417;SDS011;11376;50.932;4.442;2023-03-23T00:58:32;3.50;;;1.47;;
22417;SDS011;11376;50.932;4.442;2023-03-23T01:00:58;4.80;;;1.60;;
22417;SDS011;11376;50.932;4.442;2023-03-23T01:03:23;5.13;;;2.30;;
22417;SDS011;11376;50.932;4.442;2023-03-23T01:05:50;3.43;;;1.90;;
22417;SDS011;11376;50.932;4.442;2023-03-23T01:08:17;5.40;;;2.47;;
22417;SDS011;11376;50.932;4.442;2023-03-23T01:10:45;5.03;;;1.83;;
22417;SDS011;11376;50.932;4.442;2023-03-23T01:13:11;3.40;;;1.50;;
22417;SDS011;11376;50.932;4.442;2023-03-23T01:15:37;5.07;;;2.50;;
22417;SDS011;11376;50.932;4.442;2023-03-23T01:18:03;4.47;;;2.20;;
22417;SDS011;11376;50.932;4.442;2023-03-23T01:20:29;6.13;;;2.67;;
22417;SDS011;11376;50.932;4.442;2023-03-23T01:22:56;6.17;;;2.03;;
22417;SDS011;11376;50.932;4.442;2023-03-23T01:25:32;3.83;;;1.90;;
22417;SDS011;11376;50.932;4.442;2023-03-23T01:28:01;4.10;;;2.17;;
22417;SDS011;11376;50.932;4.442;2023-03-23T01:30:27;5.97;;;2.67;;
22417;SDS011;11376;50.932;4.442;2023-03-23T01:32:54;6.03;;;2.93;;
22417;SDS011;11376;50.932;4.442;2023-03-23T01:35:20;5.13;;;2.40;;
22417;SDS011;11376;50.932;4.442;2023-03-23T01:37:46;5.10;;;2.10;;
22417;SDS011;11376;50.932;4.442;2023-03-23T01:40:12;3.87;;;1.80;;
22417;SDS011;11376;50.932;4.442;2023-03-23T01:42:39;4.50;;;1.73;;
22417;SDS011;11376;50.932;4.442;2023-03-23T01:48:01;4.77;;;2.13;;
22417;SDS011;11376;50.932;4.442;2023-03-23T01:50:36;4.07;;;1.90;;
22417;SDS011;11376;50.932;4.442;2023-03-23T01:53:09;6.83;;;2.20;;
22417;SDS011;11376;50.932;4.442;2023-03-23T01:55:37;4.23;;;2.20;;
22417;SDS011;11376;50.932;4.442;2023-03-23T01:58:05;5.17;;;2.30;;
22417;SDS011;11376;50.932;4.442;2023-03-23T02:00:34;3.73;;;1.43;;
22417;SDS011;11376;50.932;4.442;2023-03-23T02:03:00;5.27;;;2.57;;
22417;SDS011;11376;50.932;4.442;2023-03-23T02:05:30;6.67;;;2.27;;
22417;SDS011;11376;50.932;4.442;2023-03-23T02:08:03;5.53;;;2.67;;
22417;SDS011;11376;50.932;4.442;2023-03-23T02:10:30;5.83;;;2.10;;
22417;SDS011;11376;50.932;4.442;2023-03-23T02:12:57;6.00;;;2.50;;
22417;SDS011;11376;50.932;4.442;2023-03-23T02:15:25;4.33;;;1.93;;
22417;SDS011;11376;50.932;4.442;2023-03-23T02:18:04;3.77;;;1.47;;
22417;SDS011;11376;50.932;4.442;2023-03-23T02:23:27;6.93;;;1.73;;
22417;SDS011;11376;50.932;4.442;2023-03-23T02:26:31;3.73;;;1.47;;
22417;SDS011;11376;50.932;4.442;2023-03-23T02:29:03;4.70;;;1.70;;
22417;SDS011;11376;50.932;4.442;2023-03-23T02:34:27;3.43;;;1.47;;
22417;SDS011;11376;50.932;4.442;2023-03-23T02:37:05;4.37;;;1.23;;
22417;SDS011;11376;50.932;4.442;2023-03-23T02:39:43;3.60;;;1.23;;
22417;SDS011;11376;50.932;4.442;2023-03-23T02:42:13;4.03;;;1.20;;
22417;SDS011;11376;50.932;4.442;2023-03-23T02:44:44;4.33;;;1.00;;
22417;SDS011;11376;50.932;4.442;2023-03-23T02:47:12;4.27;;;1.20;;
22417;SDS011;11376;50.932;4.442;2023-03-23T02:49:43;7.33;;;1.60;;
22417;SDS011;11376;50.932;4.442;2023-03-23T02:52:14;5.57;;;1.10;;
22417;SDS011;11376;50.932;4.442;2023-03-23T02:54:44;6.30;;;1.10;;
22417;SDS011;11376;50.932;4.442;2023-03-23T02:57:12;3.03;;;1.03;;
22417;SDS011;11376;50.932;4.442;2023-03-23T02:59:38;4.27;;;1.00;;
22417;SDS011;11376;50.932;4.442;2023-03-23T03:02:05;2.90;;;0.90;;
22417;SDS011;11376;50.932;4.442;2023-03-23T03:04:36;3.97;;;0.80;;
22417;SDS011;11376;50.932;4.442;2023-03-23T03:09:58;4.43;;;0.90;;
22417;SDS011;11376;50.932;4.442;2023-03-23T03:17:51;4.53;;;0.87;;
22417;SDS011;11376;50.932;4.442;2023-03-23T03:20:23;2.93;;;0.80;;
22417;SDS011;11376;50.932;4.442;2023-03-23T03:22:51;3.07;;;0.77;;
22417;SDS011;11376;50.932;4.442;2023-03-23T03:25:18;3.43;;;0.77;;
22417;SDS011;11376;50.932;4.442;2023-03-23T03:27:45;2.70;;;0.83;;
22417;SDS011;11376;50.932;4.442;2023-03-23T03:30:14;3.83;;;0.80;;
22417;SDS011;11376;50.932;4.442;2023-03-23T03:32:46;1.97;;;0.60;;
22417;SDS011;11376;50.932;4.442;2023-03-23T03:35:16;5.27;;;0.90;;
22417;SDS011;11376;50.932;4.442;2023-03-23T03:37:43;1.67;;;0.60;;
22417;SDS011;11376;50.932;4.442;2023-03-23T03:40:11;4.43;;;0.80;;
22417;SDS011;11376;50.932;4.442;2023-03-23T03:42:39;2.63;;;0.70;;
22417;SDS011;11376;50.932;4.442;2023-03-23T03:45:07;5.50;;;1.00;;
22417;SDS011;11376;50.932;4.442;2023-03-23T03:47:34;6.40;;;1.40;;
22417;SDS011;11376;50.932;4.442;2023-03-23T03:49:59;4.77;;;0.90;;
22417;SDS011;11376;50.932;4.442;2023-03-23T03:52:25;3.03;;;0.80;;
22417;SDS011;11376;50.932;4.442;2023-03-23T03:54:52;8.23;;;1.20;;
22417;SDS011;11376;50.932;4.442;2023-03-23T03:57:18;5.20;;;1.30;;
22417;SDS011;11376;50.932;4.442;2023-03-23T03:59:44;8.00;;;1.10;;
22417;SDS011;11376;50.932;4.442;2023-03-23T04:02:10;4.30;;;0.90;;
22417;SDS011;11376;50.932;4.442;2023-03-23T04:04:39;3.73;;;0.80;;
22417;SDS011;11376;50.932;4.442;2023-03-23T04:07:06;3.63;;;0.90;;
22417;SDS011;11376;50.932;4.442;2023-03-23T04:09:32;6.03;;;0.90;;
22417;SDS011;11376;50.932;4.442;2023-03-23T04:11:57;6.07;;;0.77;;
22417;SDS011;11376;50.932;4.442;2023-03-23T04:14:23;6.10;;;1.23;;
22417;SDS011;11376;50.932;4.442;2023-03-23T04:16:49;5.83;;;1.30;;
22417;SDS011;11376;50.932;4.442;2023-03-23T04:19:16;6.70;;;1.10;;
22417;SDS011;11376;50.932;4.442;2023-03-23T04:21:43;4.90;;;0.90;;
22417;SDS011;11376;50.932;4.442;2023-03-23T04:24:13;5.73;;;1.40;;
22417;SDS011;11376;50.932;4.442;2023-03-23T04:26:40;7.90;;;1.00;;
22417;SDS011;11376;50.932;4.442;2023-03-23T04:29:06;11.07;;;1.50;;
22417;SDS011;11376;50.932;4.442;2023-03-23T04:31:33;6.07;;;1.00;;
22417;SDS011;11376;50.932;4.442;2023-03-23T04:33:59;5.77;;;1.13;;
22417;SDS011;11376;50.932;4.442;2023-03-23T04:36:26;4.17;;;1.00;;
22417;SDS011;11376;50.932;4.442;2023-03-23T04:38:54;8.00;;;1.53;;
22417;SDS011;11376;50.932;4.442;2023-03-23T04:41:20;3.43;;;0.80;;
22417;SDS011;11376;50.932;4.442;2023-03-23T04:43:47;5.43;;;0.90;;
22417;SDS011;11376;50.932;4.442;2023-03-23T04:46:17;4.53;;;0.73;;
22417;SDS011;11376;50.932;4.442;2023-03-23T04:48:44;2.77;;;0.70;;
22417;SDS011;11376;50.932;4.442;2023-03-23T04:51:10;7.40;;;1.33;;
22417;SDS011;11376;50.932;4.442;2023-03-23T04:53:37;5.27;;;1.10;;
22417;SDS011;11376;50.932;4.442;2023-03-23T04:56:03;6.77;;;1.00;;
22417;SDS011;11376;50.932;4.442;2023-03-23T04:58:29;7.20;;;1.17;;
22417;SDS011;11376;50.932;4.442;2023-03-23T05:00:58;5.97;;;1.03;;
22417;SDS011;11376;50.932;4.442;2023-03-23T05:03:27;5.10;;;0.90;;
22417;SDS011;11376;50.932;4.442;2023-03-23T05:05:52;7.30;;;1.00;;
22417;SDS011;11376;50.932;4.442;2023-03-23T05:08:19;6.67;;;1.03;;
22417;SDS011;11376;50.932;4.442;2023-03-23T05:10:49;7.73;;;1.20;;
22417;SDS011;11376;50.932;4.442;2023-03-23T05:13:16;1.63;;;0.63;;
22417;SDS011;11376;50.932;4.442;2023-03-23T05:15:42;6.60;;;1.30;;
22417;SDS011;11376;50.932;4.442;2023-03-23T05:18:07;4.63;;;0.90;;
22417;SDS011;11376;50.932;4.442;2023-03-23T05:20:35;5.43;;;0.90;;
22417;SDS011;11376;50.932;4.442;2023-03-23T05:23:00;5.00;;;1.20;;
22417;SDS011;11376;50.932;4.442;2023-03-23T05:25:26;5.77;;;1.30;;
22417;SDS011;11376;50.932;4.442;2023-03-23T05:27:51;5.40;;;1.43;;
22417;SDS011;11376;50.932;4.442;2023-03-23T05:30:20;9.53;;;1.00;;
22417;SDS011;11376;50.932;4.442;2023-03-23T05:32:47;5.73;;;0.93;;
22417;SDS011;11376;50.932;4.442;2023-03-23T05:35:17;5.10;;;0.83;;
22417;SDS011;11376;50.932;4.442;2023-03-23T05:37:43;4.23;;;0.90;;
22417;SDS011;11376;50.932;4.442;2023-03-23T05:40:10;2.93;;;0.60;;
22417;SDS011;11376;50.932;4.442;2023-03-23T05:42:36;5.17;;;0.87;;
22417;SDS011;11376;50.932;4.442;2023-03-23T05:45:03;4.37;;;0.87;;
22417;SDS011;11376;50.932;4.442;2023-03-23T05:47:30;6.63;;;1.10;;
22417;SDS011;11376;50.932;4.442;2023-03-23T05:49:56;5.83;;;0.93;;
22417;SDS011;11376;50.932;4.442;2023-03-23T05:52:22;3.70;;;0.80;;
22417;SDS011;11376;50.932;4.442;2023-03-23T05:54:51;6.47;;;1.30;;
22417;SDS011;11376;50.932;4.442;2023-03-23T05:57:17;4.83;;;1.00;;
22417;SDS011;11376;50.932;4.442;2023-03-23T05:59:43;9.80;;;1.73;;
22417;SDS011;11376;50.932;4.442;2023-03-23T06:02:10;7.43;;;1.50;;
22417;SDS011;11376;50.932;4.442;2023-03-23T06:04:36;5.13;;;1.00;;
22417;SDS011;11376;50.932;4.442;2023-03-23T06:07:03;7.83;;;1.57;;
22417;SDS011;11376;50.932;4.442;2023-03-23T06:09:29;4.63;;;1.00;;
22417;SDS011;11376;50.932;4.442;2023-03-23T06:11:54;5.30;;;1.10;;
22417;SDS011;11376;50.932;4.442;2023-03-23T06:14:20;5.40;;;1.43;;
22417;SDS011;11376;50.932;4.442;2023-03-23T06:16:46;6.13;;;1.20;;
22417;SDS011;11376;50.932;4.442;2023-03-23T06:19:13;8.10;;;1.20;;
22417;SDS011;11376;50.932;4.442;2023-03-23T06:21:40;7.10;;;1.33;;
22417;SDS011;11376;50.932;4.442;2023-03-23T06:24:06;10.13;;;1.33;;
22417;SDS011;11376;50.932;4.442;2023-03-23T06:26:33;5.17;;;1.00;;
22417;SDS011;11376;50.932;4.442;2023-03-23T06:29:04;5.37;;;1.10;;
22417;SDS011;11376;50.932;4.442;2023-03-23T06:31:36;5.60;;;1.13;;
22417;SDS011;11376;50.932;4.442;2023-03-23T06:34:07;6.53;;;1.43;;
22417;SDS011;11376;50.932;4.442;2023-03-23T06:36:35;4.17;;;0.97;;
22417;SDS011;11376;50.932;4.442;2023-03-23T06:39:01;8.47;;;1.30;;
22417;SDS011;11376;50.932;4.442;2023-03-23T06:41:29;4.93;;;1.20;;
22417;SDS011;11376;50.932;4.442;2023-03-23T06:43:55;5.27;;;1.47;;
22417;SDS011;11376;50.932;4.442;2023-03-23T06:46:21;6.07;;;1.20;;
22417;SDS011;11376;50.932;4.442;2023-03-23T06:48:47;6.03;;;1.17;;
22417;SDS011;11376;50.932;4.442;2023-03-23T06:51:14;2.40;;;0.40;;
22417;SDS011;11376;50.932;4.442;2023-03-23T06:53:40;3.00;;;0.63;;
22417;SDS011;11376;50.932;4.442;2023-03-23T06:56:06;1.77;;;0.40;;
22417;SDS011;11376;50.932;4.442;2023-03-23T06:58:32;5.10;;;0.77;;
22417;SDS011;11376;50.932;4.442;2023-03-23T07:00:57;5.33;;;1.00;;
22417;SDS011;11376;50.932;4.442;2023-03-23T07:03:23;2.20;;;0.60;;
22417;SDS011;11376;50.932;4.442;2023-03-23T07:05:50;1.53;;;0.40;;
22417;SDS011;11376;50.932;4.442;2023-03-23T07:08:16;2.60;;;0.50;;
22417;SDS011;11376;50.932;4.442;2023-03-23T07:10:41;2.27;;;0.40;;
22417;SDS011;11376;50.932;4.442;2023-03-23T07:13:07;4.20;;;0.80;;
22417;SDS011;11376;50.932;4.442;2023-03-23T07:15:33;4.23;;;0.60;;
22417;SDS011;11376;50.932;4.442;2023-03-23T07:17:58;2.20;;;0.30;;
22417;SDS011;11376;50.932;4.442;2023-03-23T07:20:24;4.77;;;0.60;;
22417;SDS011;11376;50.932;4.442;2023-03-23T07:22:50;4.63;;;0.53;;
22417;SDS011;11376;50.932;4.442;2023-03-23T07:25:16;0.97;;;0.30;;
22417;SDS011;11376;50.932;4.442;2023-03-23T07:27:43;4.27;;;0.50;;
22417;SDS011;11376;50.932;4.442;2023-03-23T07:30:10;4.23;;;0.40;;
22417;SDS011;11376;50.932;4.442;2023-03-23T07:32:37;2.13;;;0.50;;
22417;SDS011;11376;50.932;4.442;2023-03-23T07:35:02;4.10;;;0.60;;
22417;SDS011;11376;50.932;4.442;2023-03-23T07:37:29;3.87;;;0.60;;
22417;SDS011;11376;50.932;4.442;2023-03-23T07:39:54;3.97;;;0.60;;
22417;SDS011;11376;50.932;4.442;2023-03-23T07:42:20;3.53;;;0.50;;
22417;SDS011;11376;50.932;4.442;2023-03-23T07:44:46;3.10;;;0.60;;
22417;SDS011;11376;50.932;4.442;2023-03-23T07:47:12;3.70;;;0.60;;
22417;SDS011;11376;50.932;4.442;2023-03-23T07:49:38;3.33;;;0.80;;
22417;SDS011;11376;50.932;4.442;2023-03-23T07:52:04;1.83;;;0.47;;
22417;SDS011;11376;50.932;4.442;2023-03-23T07:54:29;3.10;;;0.60;;
22417;SDS011;11376;50.932;4.442;2023-03-23T07:56:55;3.77;;;0.70;;
22417;SDS011;11376;50.932;4.442;2023-03-23T07:59:21;4.00;;;0.70;;
22417;SDS011;11376;50.932;4.442;2023-03-23T08:01:47;3.20;;;0.77;;
22417;SDS011;11376;50.932;4.442;2023-03-23T08:04:12;6.20;;;1.47;;
22417;SDS011;11376;50.932;4.442;2023-03-23T08:06:38;4.53;;;1.03;;
22417;SDS011;11376;50.932;4.442;2023-03-23T08:09:04;3.90;;;1.10;;
22417;SDS011;11376;50.932;4.442;2023-03-23T08:11:34;7.07;;;1.40;;
22417;SDS011;11376;50.932;4.442;2023-03-23T08:14:00;6.57;;;1.17;;
22417;SDS011;11376;50.932;4.442;2023-03-23T08:16:26;6.83;;;1.00;;
22417;SDS011;11376;50.932;4.442;2023-03-23T08:18:52;4.30;;;1.20;;
22417;SDS011;11376;50.932;4.442;2023-03-23T08:21:18;5.67;;;1.30;;
22417;SDS011;11376;50.932;4.442;2023-03-23T08:23:43;3.37;;;0.90;;
22417;SDS011;11376;50.932;4.442;2023-03-23T08:26:10;6.93;;;1.47;;
22417;SDS011;11376;50.932;4.442;2023-03-23T08:28:36;3.33;;;1.20;;
22417;SDS011;11376;50.932;4.442;2023-03-23T08:31:06;3.57;;;0.73;;
22417;SDS011;11376;50.932;4.442;2023-03-23T08:33:33;3.63;;;0.97;;
22417;SDS011;11376;50.932;4.442;2023-03-23T08:35:59;3.80;;;0.70;;
22417;SDS011;11376;50.932;4.442;2023-03-23T08:38:26;4.53;;;0.90;;
22417;SDS011;11376;50.932;4.442;2023-03-23T08:40:56;3.90;;;0.80;;
22417;SDS011;11376;50.932;4.442;2023-03-23T08:43:26;3.60;;;0.70;;
22417;SDS011;11376;50.932;4.442;2023-03-23T08:45:52;3.13;;;0.70;;
22417;SDS011;11376;50.932;4.442;2023-03-23T08:48:18;2.97;;;0.67;;
22417;SDS011;11376;50.932;4.442;2023-03-23T08:50:45;3.10;;;0.53;;
22417;SDS011;11376;50.932;4.442;2023-03-23T08:53:10;9.30;;;1.33;;
22417;SDS011;11376;50.932;4.442;2023-03-23T08:55:37;3.63;;;0.90;;
22417;SDS011;11376;50.932;4.442;2023-03-23T08:58:03;3.80;;;0.87;;
22417;SDS011;11376;50.932;4.442;2023-03-23T09:00:29;4.53;;;0.83;;
22417;SDS011;11376;50.932;4.442;2023-03-23T09:02:55;5.97;;;1.00;;
22417;SDS011;11376;50.932;4.442;2023-03-23T09:05:22;6.20;;;0.87;;
22417;SDS011;11376;50.932;4.442;2023-03-23T09:07:50;2.63;;;0.77;;
22417;SDS011;11376;50.932;4.442;2023-03-23T09:10:17;6.87;;;1.00;;
22417;SDS011;11376;50.932;4.442;2023-03-23T09:12:43;7.47;;;1.30;;
22417;SDS011;11376;50.932;4.442;2023-03-23T09:15:11;7.23;;;1.00;;
22417;SDS011;11376;50.932;4.442;2023-03-23T09:17:39;7.37;;;1.17;;
22417;SDS011;11376;50.932;4.442;2023-03-23T09:20:08;5.37;;;1.20;;
22417;SDS011;11376;50.932;4.442;2023-03-23T09:22:38;6.00;;;0.93;;
22417;SDS011;11376;50.932;4.442;2023-03-23T09:25:06;5.67;;;1.00;;
22417;SDS011;11376;50.932;4.442;2023-03-23T09:27:33;8.43;;;1.50;;
22417;SDS011;11376;50.932;4.442;2023-03-23T09:29:58;5.70;;;1.43;;
22417;SDS011;11376;50.932;4.442;2023-03-23T09:32:26;6.50;;;0.90;;
22417;SDS011;11376;50.932;4.442;2023-03-23T09:34:51;5.10;;;1.00;;
22417;SDS011;11376;50.932;4.442;2023-03-23T09:37:20;4.33;;;0.90;;
22417;SDS011;11376;50.932;4.442;2023-03-23T09:39:45;3.30;;;0.93;;
22417;SDS011;11376;50.932;4.442;2023-03-23T09:42:18;5.53;;;1.53;;
22417;SDS011;11376;50.932;4.442;2023-03-23T09:50:14;2.23;;;0.97;;
22417;SDS011;11376;50.932;4.442;2023-03-23T09:52:46;4.43;;;1.40;;
22417;SDS011;11376;50.932;4.442;2023-03-23T09:55:17;5.57;;;1.40;;
22417;SDS011;11376;50.932;4.442;2023-03-23T10:05:42;2.40;;;0.77;;
22417;SDS011;11376;50.932;4.442;2023-03-23T10:08:12;4.67;;;1.43;;
22417;SDS011;11376;50.932;4.442;2023-03-23T10:13:27;4.03;;;1.30;;
22417;SDS011;11376;50.932;4.442;2023-03-23T10:16:10;5.03;;;1.40;;
22417;SDS011;11376;50.932;4.442;2023-03-23T10:18:41;5.30;;;1.27;;
22417;SDS011;11376;50.932;4.442;2023-03-23T10:21:15;5.57;;;1.40;;
22417;SDS011;11376;50.932;4.442;2023-03-23T10:31:43;6.43;;;1.23;;
22417;SDS011;11376;50.932;4.442;2023-03-23T10:34:20;5.43;;;1.30;;
22417;SDS011;11376;50.932;4.442;2023-03-23T10:39:58;3.33;;;1.10;;
22417;SDS011;11376;50.932;4.442;2023-03-23T10:42:28;6.20;;;1.30;;
22417;SDS011;11376;50.932;4.442;2023-03-23T10:44:57;3.07;;;1.20;;
22417;SDS011;11376;50.932;4.442;2023-03-23T10:47:25;8.03;;;1.20;;
22417;SDS011;11376;50.932;4.442;2023-03-23T10:49:56;5.73;;;1.13;;
22417;SDS011;11376;50.932;4.442;2023-03-23T10:57:38;3.63;;;0.98;;
22417;SDS011;11376;50.932;4.442;2023-03-23T11:00:07;3.50;;;0.80;;
22417;SDS011;11376;50.932;4.442;2023-03-23T11:02:43;4.60;;;1.03;;
22417;SDS011;11376;50.932;4.442;2023-03-23T11:05:19;4.30;;;0.87;;
22417;SDS011;11376;50.932;4.442;2023-03-23T11:07:48;4.82;;;1.00;;
22417;SDS011;11376;50.932;4.442;2023-03-23T11:10:26;6.20;;;1.40;;
22417;SDS011;11376;50.932;4.442;2023-03-23T11:12:58;4.13;;;1.08;;
22417;SDS011;11376;50.932;4.442;2023-03-23T11:15:27;6.03;;;1.60;;
22417;SDS011;11376;50.932;4.442;2023-03-23T11:18:02;3.08;;;1.05;;
22417;SDS011;11376;50.932;4.442;2023-03-23T11:20:34;5.20;;;1.25;;
22417;SDS011;11376;50.932;4.442;2023-03-23T11:23:07;5.78;;;1.38;;
22417;SDS011;11376;50.932;4.442;2023-03-23T11:28:34;5.80;;;1.30;;
22417;SDS011;11376;50.932;4.442;2023-03-23T11:31:03;8.43;;;1.40;;
22417;SDS011;11376;50.932;4.442;2023-03-23T11:33:38;7.07;;;1.52;;
22417;SDS011;11376;50.932;4.442;2023-03-23T11:36:36;5.95;;;1.33;;
22417;SDS011;11376;50.932;4.442;2023-03-23T11:39:25;5.97;;;1.38;;
22417;SDS011;11376;50.932;4.442;2023-03-23T11:41:53;9.90;;;1.88;;
22417;SDS011;11376;50.932;4.442;2023-03-23T11:44:22;4.33;;;1.40;;
22417;SDS011;11376;50.932;4.442;2023-03-23T11:49:57;5.10;;;1.58;;
22417;SDS011;11376;50.932;4.442;2023-03-23T11:55:36;6.60;;;1.67;;
22417;SDS011;11376;50.932;4.442;2023-03-23T11:58:17;6.07;;;1.40;;
22417;SDS011;11376;50.932;4.442;2023-03-23T12:06:12;5.80;;;1.27;;
22417;SDS011;11376;50.932;4.442;2023-03-23T12:14:16;5.63;;;1.17;;
22417;SDS011;11376;50.932;4.442;2023-03-23T12:43:55;6.63;;;1.02;;
22417;SDS011;11376;50.932;4.442;2023-03-23T12:46:47;6.20;;;1.50;;
22417;SDS011;11376;50.932;4.442;2023-03-23T12:49:26;4.85;;;1.05;;
22417;SDS011;11376;50.932;4.442;2023-03-23T12:52:16;7.22;;;1.33;;
22417;SDS011;11376;50.932;4.442;2023-03-23T13:00:23;12.07;;;1.20;;
22417;SDS011;11376;50.932;4.442;2023-03-23T13:03:02;7.75;;;1.20;;
22417;SDS011;11376;50.932;4.442;2023-03-23T13:08:25;6.47;;;1.30;;
22417;SDS011;11376;50.932;4.442;2023-03-23T13:11:02;6.60;;;1.50;;
22417;SDS011;11376;50.932;4.442;2023-03-23T13:20:01;12.93;;;1.90;;
22417;SDS011;11376;50.932;4.442;2023-03-23T13:25:27;5.75;;;0.82;;
22417;SDS011;11376;50.932;4.442;2023-03-23T13:28:12;7.53;;;1.52;;
22417;SDS011;11376;50.932;4.442;2023-03-23T13:30:59;8.43;;;1.30;;
22417;SDS011;11376;50.932;4.442;2023-03-23T13:33:33;4.38;;;1.23;;
22417;SDS011;11376;50.932;4.442;2023-03-23T13:36:04;5.85;;;1.33;;
22417;SDS011;11376;50.932;4.442;2023-03-23T13:38:38;7.63;;;1.33;;
22417;SDS011;11376;50.932;4.442;2023-03-23T13:41:12;9.48;;;1.88;;
22417;SDS011;11376;50.932;4.442;2023-03-23T13:43:40;9.00;;;1.42;;
22417;SDS011;11376;50.932;4.442;2023-03-23T13:48:42;10.35;;;1.70;;
22417;SDS011;11376;50.932;4.442;2023-03-23T13:52:16;11.98;;;1.65;;
22417;SDS011;11376;50.932;4.442;2023-03-23T13:57:19;7.25;;;1.35;;
22417;SDS011;11376;50.932;4.442;2023-03-23T14:05:51;8.52;;;1.20;;
22417;SDS011;11376;50.932;4.442;2023-03-23T14:08:37;3.72;;;1.15;;
22417;SDS011;11376;50.932;4.442;2023-03-23T14:11:22;5.95;;;1.15;;
22417;SDS011;11376;50.932;4.442;2023-03-23T14:13:56;5.50;;;1.58;;
22417;SDS011;11376;50.932;4.442;2023-03-23T14:16:36;7.25;;;1.08;;
22417;SDS011;11376;50.932;4.442;2023-03-23T14:19:26;6.72;;;0.93;;
22417;SDS011;11376;50.932;4.442;2023-03-23T14:21:58;6.65;;;1.42;;
22417;SDS011;11376;50.932;4.442;2023-03-23T14:24:29;5.93;;;1.20;;
22417;SDS011;11376;50.932;4.442;2023-03-23T14:27:13;7.07;;;1.48;;
22417;SDS011;11376;50.932;4.442;2023-03-23T14:29:41;8.88;;;1.90;;
22417;SDS011;11376;50.932;4.442;2023-03-23T14:32:07;5.65;;;1.80;;
22417;SDS011;11376;50.932;4.442;2023-03-23T14:34:37;8.38;;;1.73;;
22417;SDS011;11376;50.932;4.442;2023-03-23T14:37:03;7.03;;;1.70;;
22417;SDS011;11376;50.932;4.442;2023-03-23T14:39:30;8.77;;;1.60;;
22417;SDS011;11376;50.932;4.442;2023-03-23T14:42:05;4.60;;;1.65;;
22417;SDS011;11376;50.932;4.442;2023-03-23T14:44:38;8.63;;;1.70;;
22417;SDS011;11376;50.932;4.442;2023-03-23T14:47:10;8.35;;;1.83;;
22417;SDS011;11376;50.932;4.442;2023-03-23T14:49:42;8.13;;;1.90;;
22417;SDS011;11376;50.932;4.442;2023-03-23T14:52:15;11.90;;;2.00;;
22417;SDS011;11376;50.932;4.442;2023-03-23T14:54:43;10.57;;;1.50;;
22417;SDS011;11376;50.932;4.442;2023-03-23T14:57:17;6.32;;;1.40;;
22417;SDS011;11376;50.932;4.442;2023-03-23T14:59:47;6.30;;;1.58;;
22417;SDS011;11376;50.932;4.442;2023-03-23T15:02:17;6.32;;;1.20;;
22417;SDS011;11376;50.932;4.442;2023-03-23T15:04:48;6.13;;;1.42;;
22417;SDS011;11376;50.932;4.442;2023-03-23T15:07:26;8.75;;;1.60;;
22417;SDS011;11376;50.932;4.442;2023-03-23T15:09:55;6.30;;;1.30;;
22417;SDS011;11376;50.932;4.442;2023-03-23T15:12:26;5.93;;;1.08;;
22417;SDS011;11376;50.932;4.442;2023-03-23T15:14:56;7.40;;;1.48;;
22417;SDS011;11376;50.932;4.442;2023-03-23T15:17:25;7.60;;;1.80;;
22417;SDS011;11376;50.932;4.442;2023-03-23T15:19:52;9.60;;;1.63;;
22417;SDS011;11376;50.932;4.442;2023-03-23T15:25:01;7.95;;;1.40;;
22417;SDS011;11376;50.932;4.442;2023-03-23T15:30:30;13.82;;;1.90;;
22417;SDS011;11376;50.932;4.442;2023-03-23T15:33:02;9.38;;;2.28;;
22417;SDS011;11376;50.932;4.442;2023-03-23T15:35:35;8.68;;;2.45;;
22417;SDS011;11376;50.932;4.442;2023-03-23T15:38:06;9.55;;;2.47;;
22417;SDS011;11376;50.932;4.442;2023-03-23T15:40:42;8.63;;;2.45;;
22417;SDS011;11376;50.932;4.442;2023-03-23T15:48:28;8.32;;;2.42;;
22417;SDS011;11376;50.932;4.442;2023-03-23T15:50:58;13.27;;;3.10;;
22417;SDS011;11376;50.932;4.442;2023-03-23T15:55:55;12.30;;;2.33;;
22417;SDS011;11376;50.932;4.442;2023-03-23T15:58:22;12.15;;;2.63;;
22417;SDS011;11376;50.932;4.442;2023-03-23T16:00:48;12.20;;;2.10;;
22417;SDS011;11376;50.932;4.442;2023-03-23T16:03:23;7.82;;;1.77;;
22417;SDS011;11376;50.932;4.442;2023-03-23T16:05:54;4.93;;;1.67;;
22417;SDS011;11376;50.932;4.442;2023-03-23T16:08:21;11.55;;;2.50;;
22417;SDS011;11376;50.932;4.442;2023-03-23T16:10:47;8.52;;;2.63;;
22417;SDS011;11376;50.932;4.442;2023-03-23T16:13:13;11.65;;;2.28;;
22417;SDS011;11376;50.932;4.442;2023-03-23T16:15:38;10.25;;;2.25;;
22417;SDS011;11376;50.932;4.442;2023-03-23T16:18:04;11.10;;;2.35;;
22417;SDS011;11376;50.932;4.442;2023-03-23T16:20:30;12.20;;;2.25;;
22417;SDS011;11376;50.932;4.442;2023-03-23T16:22:57;4.00;;;1.33;;
22417;SDS011;11376;50.932;4.442;2023-03-23T16:25:22;8.45;;;1.70;;
22417;SDS011;11376;50.932;4.442;2023-03-23T16:27:48;8.57;;;1.42;;
22417;SDS011;11376;50.932;4.442;2023-03-23T16:30:22;5.15;;;0.80;;
22417;SDS011;11376;50.932;4.442;2023-03-23T16:32:49;8.18;;;1.75;;
22417;SDS011;11376;50.932;4.442;2023-03-23T16:35:15;7.30;;;1.33;;
22417;SDS011;11376;50.932;4.442;2023-03-23T16:37:48;8.35;;;1.65;;
22417;SDS011;11376;50.932;4.442;2023-03-23T16:40:16;9.50;;;2.15;;
22417;SDS011;11376;50.932;4.442;2023-03-23T16:42:43;8.35;;;1.48;;
22417;SDS011;11376;50.932;4.442;2023-03-23T16:45:08;6.50;;;1.90;;
22417;SDS011;11376;50.932;4.442;2023-03-23T16:47:35;8.45;;;1.80;;
22417;SDS011;11376;50.932;4.442;2023-03-23T16:50:01;8.68;;;1.90;;
22417;SDS011;11376;50.932;4.442;2023-03-23T16:52:27;8.82;;;1.65;;
22417;SDS011;11376;50.932;4.442;2023-03-23T16:54:53;8.48;;;2.05;;
22417;SDS011;11376;50.932;4.442;2023-03-23T16:57:18;13.25;;;2.60;;
22417;SDS011;11376;50.932;4.442;2023-03-23T16:59:44;6.90;;;2.15;;
22417;SDS011;11376;50.932;4.442;2023-03-23T17:02:10;6.68;;;1.42;;
22417;SDS011;11376;50.932;4.442;2023-03-23T17:04:37;10.25;;;2.25;;
22417;SDS011;11376;50.932;4.442;2023-03-23T17:07:08;9.60;;;1.92;;
22417;SDS011;11376;50.932;4.442;2023-03-23T17:09:33;9.48;;;2.00;;
22417;SDS011;11376;50.932;4.442;2023-03-23T17:11:59;14.20;;;2.22;;
22417;SDS011;11376;50.932;4.442;2023-03-23T17:14:25;9.32;;;1.70;;
22417;SDS011;11376;50.932;4.442;2023-03-23T17:16:50;9.63;;;2.25;;
22417;SDS011;11376;50.932;4.442;2023-03-23T17:19:16;10.40;;;2.28;;
22417;SDS011;11376;50.932;4.442;2023-03-23T17:21:42;9.90;;;2.10;;